Disclaimer

Please do not use the information listed here in-flight or in-navigation, as they are not provided to us by the airports but are provided by volunteers, so they might be outdated.

Search


Regions


Airport information page

Radio informations:
SKRYDSTRUP APP - 127.475 MHz
VAMDRUP AFIS - 120.5 MHz

Airport informations:
Latitude: 55° 26' 10.62" N
Longitude: 009° 19' 51.33" E
Elevation: 143 feet - 44 meters
Operating hours: Remarks
Operating agency: Civil government, landing fees and diplomatic clearance may be required
Timezone: UTC+1(+2DT) - Last Sunday in March to last Sunday in October
Fuel: Jet A1, without icing nhibitor.

100/130 MIL Spec, low lead, aviation gasoline (BLUE)

Runway information:
01/19 - 3203 x 75 feet< - >976 x 23 meters
08/26 - 2310 x 75 feet< - >704 x 23 meters

Recent METARs:
EKVD 160950Z 14011KT 9999 FEW020 BKN024 01/M03 Q1014
EKVD 160950Z 14011KT 9999 FEW020 BKN024 01/M03 Q1014
EKVD 161050Z 14008KT 9999 BKN022 01/M02 Q1014

Airport on the map: